createdAt,value
2016-10-10T00:00:11.374Z,1016.49
2016-10-10T00:01:11.359Z,1016.51
2016-10-10T00:02:11.346Z,1016.48
2016-10-10T00:03:11.332Z,1016.47
2016-10-10T00:04:11.318Z,1016.47
2016-10-10T00:05:11.304Z,1016.5
2016-10-10T00:06:11.289Z,1016.49
2016-10-10T00:07:11.274Z,1016.49
2016-10-10T00:08:11.262Z,1016.46
2016-10-10T00:09:11.245Z,1016.47
2016-10-10T00:10:11.232Z,1016.46
2016-10-10T00:11:11.218Z,1016.44
2016-10-10T00:12:11.203Z,1016.47
2016-10-10T00:13:11.191Z,1016.44
2016-10-10T00:14:11.175Z,1016.43
2016-10-10T00:15:11.167Z,1016.45
2016-10-10T00:16:11.149Z,1016.49
2016-10-10T00:17:11.134Z,1016.47
2016-10-10T00:18:11.121Z,1016.45
2016-10-10T00:19:11.106Z,1016.49
2016-10-10T00:20:11.094Z,1016.48
2016-10-10T00:21:11.078Z,1016.45
2016-10-10T00:22:11.065Z,1016.46
2016-10-10T00:23:11.049Z,1016.44
2016-10-10T00:24:11.036Z,1016.43
2016-10-10T00:25:11.021Z,1016.41
2016-10-10T00:26:11.009Z,1016.45
2016-10-10T00:27:10.995Z,1016.45
2016-10-10T00:28:10.979Z,1016.43
2016-10-10T00:29:10.967Z,1016.48
2016-10-10T00:30:10.951Z,1016.47
2016-10-10T00:31:10.942Z,1016.5
2016-10-10T00:32:10.923Z,1016.48
2016-10-10T00:33:10.909Z,1016.48
2016-10-10T00:34:10.895Z,1016.45
2016-10-10T00:35:10.881Z,1016.45
2016-10-10T00:36:10.866Z,1016.45
2016-10-10T00:37:10.858Z,1016.43
2016-10-10T00:38:10.842Z,1016.44
2016-10-10T00:39:10.825Z,1016.44
2016-10-10T00:40:10.839Z,1016.42
2016-10-10T00:41:10.797Z,1016.42
2016-10-10T00:42:10.783Z,1016.4
2016-10-10T00:43:10.768Z,1016.42
2016-10-10T00:44:10.757Z,1016.44
2016-10-10T00:45:10.741Z,1016.37
2016-10-10T00:46:10.726Z,1016.38
2016-10-10T00:47:10.713Z,1016.39
2016-10-10T00:48:10.699Z,1016.4
2016-10-10T00:49:10.683Z,1016.37
2016-10-10T00:50:10.671Z,1016.35
2016-10-10T00:51:10.656Z,1016.35
2016-10-10T00:52:10.643Z,1016.33
2016-10-10T00:53:10.628Z,1016.41
2016-10-10T00:54:10.614Z,1016.4
2016-10-10T00:55:10.600Z,1016.41
2016-10-10T00:56:10.585Z,1016.41
2016-10-10T00:57:10.571Z,1016.43
2016-10-10T00:58:10.557Z,1016.42
2016-10-10T00:59:10.544Z,1016.42
2016-10-10T01:00:10.529Z,1016.39
2016-10-10T01:01:10.517Z,1016.38
2016-10-10T01:02:10.502Z,1016.32
2016-10-10T01:03:10.488Z,1016.34
2016-10-10T01:04:10.475Z,1016.29
2016-10-10T01:05:10.460Z,1016.29
2016-10-10T01:06:10.649Z,1016.28
2016-10-10T01:07:10.431Z,1016.28
2016-10-10T01:08:10.418Z,1016.32
2016-10-10T01:09:10.403Z,1016.29
2016-10-10T01:10:10.390Z,1016.28
2016-10-10T01:11:10.376Z,1016.32
2016-10-10T01:12:10.363Z,1016.29
2016-10-10T01:13:10.349Z,1016.29
2016-10-10T01:14:10.333Z,1016.26
2016-10-10T01:15:10.322Z,1016.29
2016-10-10T01:16:10.307Z,1016.27
2016-10-10T01:17:10.291Z,1016.23
2016-10-10T01:18:10.281Z,1016.28
2016-10-10T01:19:10.265Z,1016.26
2016-10-10T01:20:10.250Z,1016.25
2016-10-10T01:21:10.235Z,1016.25
2016-10-10T01:22:10.221Z,1016.24
2016-10-10T01:23:10.206Z,1016.22
2016-10-10T01:24:10.196Z,1016.22
2016-10-10T01:25:10.178Z,1016.23
2016-10-10T01:26:10.163Z,1016.19
2016-10-10T01:27:10.149Z,1016.17
2016-10-10T01:28:10.137Z,1016.15
2016-10-10T01:29:10.123Z,1016.12
2016-10-10T01:30:10.107Z,1016.12
2016-10-10T01:31:10.092Z,1016.15
2016-10-10T01:32:10.079Z,1016.11
2016-10-10T01:33:10.063Z,1016.14
2016-10-10T01:34:10.050Z,1016.12
2016-10-10T01:35:10.036Z,1016.11
2016-10-10T01:36:10.021Z,1016.11
2016-10-10T01:37:10.008Z,1016.1
2016-10-10T01:38:09.993Z,1016.1
2016-10-10T01:39:09.978Z,1016.05
2016-10-10T01:40:09.963Z,1016.07
2016-10-10T01:41:09.955Z,1016.13
2016-10-10T01:42:09.936Z,1016.12
2016-10-10T01:43:09.921Z,1016.12
2016-10-10T01:44:09.907Z,1016.13
2016-10-10T01:45:09.890Z,1016.11
2016-10-10T01:46:09.877Z,1016.12
2016-10-10T01:47:09.863Z,1016.13
2016-10-10T01:48:09.851Z,1016.12
2016-10-10T01:49:09.833Z,1016.17
2016-10-10T01:50:09.819Z,1016.11
2016-10-10T01:51:09.803Z,1016.06
2016-10-10T01:52:09.791Z,1016.06
2016-10-10T01:53:09.775Z,1016.03
2016-10-10T01:54:09.760Z,1016.09
2016-10-10T01:55:09.745Z,1016.03
2016-10-10T01:56:09.731Z,1016.09
2016-10-10T01:57:09.717Z,1016.12
2016-10-10T01:58:09.700Z,1016.07
2016-10-10T01:59:09.686Z,1016.08
2016-10-10T02:00:09.672Z,1016.1
2016-10-10T02:01:09.656Z,1016.1
2016-10-10T02:02:09.641Z,1016.08
2016-10-10T02:03:09.626Z,1016.1
2016-10-10T02:04:09.612Z,1016.11
2016-10-10T02:05:09.596Z,1016.07
2016-10-10T02:06:09.581Z,1016.11
2016-10-10T02:07:09.565Z,1016.12
2016-10-10T02:08:09.550Z,1016.09
2016-10-10T02:09:09.538Z,1016.12
2016-10-10T02:10:09.522Z,1016.12
2016-10-10T02:11:09.508Z,1016.12
2016-10-10T02:12:09.492Z,1016.17
2016-10-10T02:13:09.474Z,1016.14
2016-10-10T02:14:09.460Z,1016.13
2016-10-10T02:15:09.443Z,1016.11
2016-10-10T02:16:09.428Z,1016.14
2016-10-10T02:17:09.413Z,1016.12
2016-10-10T02:18:09.397Z,1016.14
2016-10-10T02:19:09.381Z,1016.11
2016-10-10T02:20:09.369Z,1016.11
2016-10-10T02:21:09.350Z,1016.12
2016-10-10T02:22:09.336Z,1016.12
2016-10-10T02:23:09.320Z,1016.12
2016-10-10T02:24:09.303Z,1016.11
2016-10-10T02:25:09.288Z,1016.12
2016-10-10T02:26:09.273Z,1016.13
2016-10-10T02:27:09.261Z,1016.15
2016-10-10T02:28:09.242Z,1016.13
2016-10-10T02:29:09.226Z,1016.16
2016-10-10T02:30:09.211Z,1016.1
2016-10-10T02:31:09.194Z,1016.15
2016-10-10T02:32:09.181Z,1016.13
2016-10-10T02:33:09.164Z,1016.1
2016-10-10T02:34:09.149Z,1016.1
2016-10-10T02:35:09.133Z,1016.1
2016-10-10T02:36:09.117Z,1016.04
2016-10-10T02:37:09.103Z,1016.04
2016-10-10T02:38:09.085Z,1016.02
2016-10-10T02:39:09.071Z,1015.99
2016-10-10T02:40:09.056Z,1015.99
2016-10-10T02:41:09.041Z,1015.97
2016-10-10T02:42:09.024Z,1015.98
2016-10-10T02:43:09.011Z,1015.97
2016-10-10T02:44:08.993Z,1015.97
2016-10-10T02:45:08.978Z,1015.98
2016-10-10T02:46:08.963Z,1015.96
2016-10-10T02:47:08.946Z,1015.94
2016-10-10T02:48:08.931Z,1015.92
2016-10-10T02:49:08.916Z,1015.91
2016-10-10T02:50:08.899Z,1015.93
2016-10-10T02:51:08.883Z,1015.95
2016-10-10T02:52:08.869Z,1015.93
2016-10-10T02:53:08.854Z,1015.92
2016-10-10T02:54:08.837Z,1015.92
2016-10-10T02:55:08.822Z,1015.9
2016-10-10T02:56:08.808Z,1015.89
2016-10-10T02:57:08.790Z,1015.86
2016-10-10T02:58:08.775Z,1015.89
2016-10-10T02:59:08.760Z,1015.86
2016-10-10T03:00:08.742Z,1015.87
2016-10-10T03:01:08.727Z,1015.81
2016-10-10T03:02:08.712Z,1015.86
2016-10-10T03:03:08.696Z,1015.87
2016-10-10T03:04:08.679Z,1015.86
2016-10-10T03:05:08.663Z,1015.86
2016-10-10T03:06:08.850Z,1015.87
2016-10-10T03:07:08.634Z,1015.88
2016-10-10T03:08:08.615Z,1015.9
2016-10-10T03:09:08.600Z,1015.86
2016-10-10T03:10:08.586Z,1015.87
2016-10-10T03:11:08.606Z,1015.84
2016-10-10T03:12:08.552Z,1015.87
2016-10-10T03:13:08.538Z,1015.89
2016-10-10T03:14:08.523Z,1015.86
2016-10-10T03:15:08.505Z,1015.86
2016-10-10T03:16:08.489Z,1015.85
2016-10-10T03:17:08.480Z,1015.87
2016-10-10T03:18:08.458Z,1015.88
2016-10-10T03:19:08.441Z,1015.92
2016-10-10T03:20:08.426Z,1015.88
2016-10-10T03:21:08.410Z,1015.89
2016-10-10T03:22:08.392Z,1015.88
2016-10-10T03:23:08.377Z,1015.84
2016-10-10T03:24:08.360Z,1015.88
2016-10-10T03:25:08.345Z,1015.88
2016-10-10T03:26:08.330Z,1015.85
2016-10-10T03:27:08.312Z,1015.91
2016-10-10T03:28:08.297Z,1015.85
2016-10-10T03:29:08.279Z,1015.88
2016-10-10T03:30:08.265Z,1015.88
2016-10-10T03:31:08.249Z,1015.92
2016-10-10T03:32:08.235Z,1015.9
2016-10-10T03:33:08.214Z,1015.88
2016-10-10T03:34:08.199Z,1015.91
2016-10-10T03:35:08.184Z,1015.86
2016-10-10T03:36:08.170Z,1015.88
2016-10-10T03:37:08.153Z,1015.84
2016-10-10T03:38:08.134Z,1015.84
2016-10-10T03:39:08.121Z,1015.82
2016-10-10T03:40:08.101Z,1015.84
2016-10-10T03:41:08.090Z,1015.82
2016-10-10T03:42:08.069Z,1015.84
2016-10-10T03:43:08.054Z,1015.83
2016-10-10T03:44:08.037Z,1015.83
2016-10-10T03:45:08.025Z,1015.81
2016-10-10T03:46:08.005Z,1015.81
2016-10-10T03:47:07.988Z,1015.83
2016-10-10T03:48:07.971Z,1015.82
2016-10-10T03:49:07.955Z,1015.81
2016-10-10T03:50:07.940Z,1015.83
2016-10-10T03:51:07.928Z,1015.81
2016-10-10T03:52:07.906Z,1015.79
2016-10-10T03:53:07.889Z,1015.79
2016-10-10T03:54:07.873Z,1015.78
2016-10-10T03:55:07.856Z,1015.79
2016-10-10T03:56:07.840Z,1015.77
2016-10-10T03:57:07.823Z,1015.8
2016-10-10T03:58:07.806Z,1015.72
2016-10-10T03:59:07.790Z,1015.74
2016-10-10T04:00:07.773Z,1015.77
2016-10-10T04:01:07.761Z,1015.77
2016-10-10T04:02:07.744Z,1015.76
2016-10-10T04:03:07.730Z,1015.76
2016-10-10T04:04:07.716Z,1015.8
2016-10-10T04:05:07.697Z,1015.76
2016-10-10T04:06:07.679Z,1015.8
2016-10-10T04:07:07.661Z,1015.76
2016-10-10T04:08:07.642Z,1015.79
2016-10-10T04:09:07.635Z,1015.8
2016-10-10T04:10:07.608Z,1015.73
2016-10-10T04:11:07.591Z,1015.79
2016-10-10T04:12:07.573Z,1015.74
2016-10-10T04:13:07.556Z,1015.74
2016-10-10T04:14:07.543Z,1015.75
2016-10-10T04:15:07.523Z,1015.73
2016-10-10T04:16:07.508Z,1015.75
2016-10-10T04:17:07.493Z,1015.73
2016-10-10T04:18:07.474Z,1015.72
2016-10-10T04:19:07.458Z,1015.7
2016-10-10T04:20:07.440Z,1015.72
2016-10-10T04:21:07.424Z,1015.75
2016-10-10T04:22:07.409Z,1015.76
2016-10-10T04:23:07.389Z,1015.72
2016-10-10T04:24:07.373Z,1015.73
2016-10-10T04:25:07.359Z,1015.76
2016-10-10T04:26:07.338Z,1015.74
2016-10-10T04:27:07.323Z,1015.72
2016-10-10T04:28:07.306Z,1015.76
2016-10-10T04:29:07.289Z,1015.73
2016-10-10T04:30:07.273Z,1015.76
2016-10-10T04:31:07.259Z,1015.77
2016-10-10T04:32:07.241Z,1015.77
2016-10-10T04:33:07.222Z,1015.75
2016-10-10T04:34:07.205Z,1015.74
2016-10-10T04:35:07.189Z,1015.7
2016-10-10T04:36:07.173Z,1015.74
2016-10-10T04:37:07.160Z,1015.73
2016-10-10T04:38:07.140Z,1015.71
2016-10-10T04:39:07.123Z,1015.76
2016-10-10T04:40:07.107Z,1015.77
2016-10-10T04:41:07.089Z,1015.78
2016-10-10T04:42:07.075Z,1015.76
2016-10-10T04:43:07.068Z,1015.76
2016-10-10T04:44:07.050Z,1015.73
2016-10-10T04:45:07.024Z,1015.73
2016-10-10T04:46:07.011Z,1015.8
2016-10-10T04:47:06.990Z,1015.77
2016-10-10T04:48:06.973Z,1015.79
2016-10-10T04:49:06.956Z,1015.78
2016-10-10T04:50:06.940Z,1015.72
2016-10-10T04:51:06.922Z,1015.75
2016-10-10T04:52:06.909Z,1015.71
2016-10-10T04:53:06.890Z,1015.72
2016-10-10T04:54:06.872Z,1015.71
2016-10-10T04:55:06.857Z,1015.69
2016-10-10T04:56:06.841Z,1015.74
2016-10-10T04:57:06.823Z,1015.76
2016-10-10T04:58:06.807Z,1015.74
2016-10-10T04:59:06.791Z,1015.73
2016-10-10T05:00:06.776Z,1015.7
2016-10-10T05:01:06.755Z,1015.74
2016-10-10T05:02:06.740Z,1015.75
2016-10-10T05:03:06.724Z,1015.75
2016-10-10T05:04:06.707Z,1015.73
2016-10-10T05:05:06.691Z,1015.77
2016-10-10T05:06:06.877Z,1015.74
2016-10-10T05:07:06.660Z,1015.78
2016-10-10T05:08:06.641Z,1015.75
2016-10-10T05:09:06.625Z,1015.73
2016-10-10T05:10:06.609Z,1015.74
2016-10-10T05:11:06.590Z,1015.8
2016-10-10T05:12:06.574Z,1015.77
2016-10-10T05:13:06.557Z,1015.8
2016-10-10T05:14:06.541Z,1015.78
2016-10-10T05:15:06.525Z,1015.84
2016-10-10T05:16:06.506Z,1015.83
2016-10-10T05:17:06.491Z,1015.8
2016-10-10T05:18:06.479Z,1015.83
2016-10-10T05:19:06.457Z,1015.86
2016-10-10T05:20:06.440Z,1015.83
2016-10-10T05:21:06.424Z,1015.84
2016-10-10T05:22:06.408Z,1015.85
2016-10-10T05:23:06.393Z,1015.8
2016-10-10T05:24:06.376Z,1015.84
2016-10-10T05:25:06.358Z,1015.85
2016-10-10T05:26:06.339Z,1015.81
2016-10-10T05:27:06.325Z,1015.82
2016-10-10T05:28:06.308Z,1015.8
2016-10-10T05:29:06.290Z,1015.8
2016-10-10T05:30:06.274Z,1015.84
2016-10-10T05:31:06.257Z,1015.78
2016-10-10T05:32:06.240Z,1015.82
2016-10-10T05:33:06.227Z,1015.78
2016-10-10T05:34:06.208Z,1015.81
2016-10-10T05:35:06.190Z,1015.85
2016-10-10T05:36:06.176Z,1015.82
2016-10-10T05:37:06.156Z,1015.85
2016-10-10T05:38:06.142Z,1015.89
2016-10-10T05:39:06.125Z,1015.91
2016-10-10T05:40:06.110Z,1015.92
2016-10-10T05:41:06.091Z,1015.92
2016-10-10T05:42:06.074Z,1015.91
2016-10-10T05:43:06.060Z,1015.88
2016-10-10T05:44:06.042Z,1015.89
2016-10-10T05:45:06.024Z,1015.91
2016-10-10T05:46:06.012Z,1015.89
2016-10-10T05:47:05.992Z,1015.92
2016-10-10T05:48:05.975Z,1015.96
2016-10-10T05:49:05.957Z,1015.94
2016-10-10T05:50:05.941Z,1015.94
2016-10-10T05:51:05.926Z,1015.92
2016-10-10T05:52:05.907Z,1015.96
2016-10-10T05:53:05.891Z,1015.96
2016-10-10T05:54:05.874Z,1015.96
2016-10-10T05:55:05.858Z,1015.95
2016-10-10T05:56:05.840Z,1015.98
2016-10-10T05:57:05.824Z,1015.98
2016-10-10T05:58:05.809Z,1015.97
2016-10-10T05:59:05.791Z,1015.98
2016-10-10T06:00:05.775Z,1016.03
2016-10-10T06:01:05.758Z,1016.05
2016-10-10T06:02:05.740Z,1016.03
2016-10-10T06:03:05.722Z,1016.04
2016-10-10T06:04:05.708Z,1016.04
2016-10-10T06:05:05.689Z,1016.07
2016-10-10T06:06:05.673Z,1016.05
2016-10-10T06:07:05.656Z,1016.03
2016-10-10T06:08:05.639Z,1016.02
2016-10-10T06:09:05.628Z,1016.02
2016-10-10T06:10:05.609Z,1016.03
2016-10-10T06:11:05.590Z,1016.02
2016-10-10T06:12:05.573Z,1016.06
2016-10-10T06:13:05.557Z,1016.04
2016-10-10T06:14:05.538Z,1016.05
2016-10-10T06:15:05.524Z,1016.08
2016-10-10T06:16:05.512Z,1016.08
2016-10-10T06:17:05.491Z,1016.07
2016-10-10T06:18:05.472Z,1016.07
2016-10-10T06:19:05.456Z,1016.1
2016-10-10T06:20:05.440Z,1016.05
2016-10-10T06:21:05.425Z,1016.07
2016-10-10T06:22:05.408Z,1016.1
2016-10-10T06:23:05.390Z,1016.1
2016-10-10T06:24:05.373Z,1016.05
2016-10-10T06:25:05.357Z,1016.09
2016-10-10T06:26:05.340Z,1016.08
2016-10-10T06:27:05.325Z,1016.1
2016-10-10T06:28:05.307Z,1016.11
2016-10-10T06:29:05.290Z,1016.09
2016-10-10T06:30:05.276Z,1016.08
2016-10-10T06:31:05.258Z,1016.08
2016-10-10T06:32:05.243Z,1016.08
2016-10-10T06:33:05.225Z,1016.12
2016-10-10T06:34:05.209Z,1016.11
2016-10-10T06:35:05.195Z,1016.12
2016-10-10T06:36:05.184Z,1016.08
2016-10-10T06:37:05.159Z,1016.06
2016-10-10T06:38:05.144Z,1016.1
2016-10-10T06:39:05.133Z,1016.09
2016-10-10T06:40:05.112Z,1016.09
2016-10-10T06:41:05.095Z,1016.09
2016-10-10T06:42:05.079Z,1016.09
2016-10-10T06:43:05.068Z,1016.09
2016-10-10T06:44:05.047Z,1016.06
2016-10-10T06:45:05.031Z,1016.03
2016-10-10T06:46:05.016Z,1016.06
2016-10-10T06:47:04.998Z,1016.05
2016-10-10T06:48:04.982Z,1016.08
2016-10-10T06:49:04.966Z,1016.05
2016-10-10T06:50:04.952Z,1016.02
2016-10-10T06:51:04.932Z,1016.03
2016-10-10T06:52:04.918Z,1016.04
2016-10-10T06:53:04.909Z,1016.09
2016-10-10T06:54:04.894Z,1016.07
2016-10-10T06:55:04.867Z,1016.12
2016-10-10T06:56:04.851Z,1016.08
2016-10-10T06:57:04.838Z,1016.03
2016-10-10T06:58:04.821Z,1016.08
2016-10-10T06:59:04.804Z,1016.05
2016-10-10T07:00:04.788Z,1016.08
2016-10-10T07:01:04.770Z,1016.07
2016-10-10T07:02:04.756Z,1016.09
2016-10-10T07:03:04.740Z,1016.09
2016-10-10T07:04:04.725Z,1016.09
2016-10-10T07:05:04.707Z,1016.1
2016-10-10T07:06:04.895Z,1016.06
2016-10-10T07:07:04.675Z,1016.1
2016-10-10T07:08:04.660Z,1016.12
2016-10-10T07:09:04.644Z,1016.09
2016-10-10T07:10:04.628Z,1016.12
2016-10-10T07:11:04.611Z,1016.13
2016-10-10T07:12:04.600Z,1016.1
2016-10-10T07:13:04.591Z,1016.08
2016-10-10T07:14:04.567Z,1016.1
2016-10-10T07:15:04.549Z,1016.09
2016-10-10T07:16:04.531Z,1016.13
2016-10-10T07:17:04.515Z,1016.12
2016-10-10T07:18:04.500Z,1016.12
2016-10-10T07:19:04.488Z,1016.15
2016-10-10T07:20:04.470Z,1016.12
2016-10-10T07:21:04.453Z,1016.1
2016-10-10T07:22:04.439Z,1016.07
2016-10-10T07:23:04.422Z,1016.09
2016-10-10T07:24:04.406Z,1016.07
2016-10-10T07:25:04.389Z,1016.05
2016-10-10T07:26:04.376Z,1016.07
2016-10-10T07:27:04.358Z,1016.08
2016-10-10T07:28:04.342Z,1016.08
2016-10-10T07:29:04.328Z,1016.08
2016-10-10T07:30:04.311Z,1016.06
2016-10-10T07:31:04.297Z,1016.08
2016-10-10T07:32:04.279Z,1016.07
2016-10-10T07:33:04.263Z,1016.06
2016-10-10T07:34:04.250Z,1016.06
2016-10-10T07:35:04.234Z,1016.07
2016-10-10T07:36:04.220Z,1016.06
2016-10-10T07:37:04.205Z,1016.06
2016-10-10T07:38:04.185Z,1016.08
2016-10-10T07:39:04.193Z,1016.11
2016-10-10T07:40:04.176Z,1016.09
2016-10-10T07:41:04.144Z,1016.1
2016-10-10T07:42:04.129Z,1016.17
2016-10-10T07:43:04.109Z,1016.14
2016-10-10T07:44:04.096Z,1016.15
2016-10-10T07:45:04.081Z,1016.17
2016-10-10T07:46:04.064Z,1016.16
2016-10-10T07:47:04.048Z,1016.16
2016-10-10T07:48:04.036Z,1016.19
2016-10-10T07:49:04.018Z,1016.18
2016-10-10T07:50:04.002Z,1016.19
2016-10-10T07:51:03.986Z,1016.18
2016-10-10T07:52:03.971Z,1016.18
2016-10-10T07:53:03.958Z,1016.2
2016-10-10T07:54:03.940Z,1016.21
2016-10-10T07:55:03.925Z,1016.17
2016-10-10T07:56:03.914Z,1016.16
2016-10-10T07:57:03.895Z,1016.12
2016-10-10T07:58:03.882Z,1016.15
2016-10-10T07:59:03.865Z,1016.17
2016-10-10T08:00:03.853Z,1016.2
2016-10-10T08:01:03.835Z,1016.16
2016-10-10T08:02:03.821Z,1016.2
2016-10-10T08:03:03.807Z,1016.21
2016-10-10T08:04:03.791Z,1016.16
2016-10-10T08:05:03.779Z,1016.2
2016-10-10T08:06:03.760Z,1016.16
2016-10-10T08:07:03.746Z,1016.2
2016-10-10T08:08:03.733Z,1016.18
2016-10-10T08:09:03.718Z,1016.19
2016-10-10T08:10:03.702Z,1016.19
2016-10-10T08:11:03.688Z,1016.15
2016-10-10T08:12:03.683Z,1016.14
2016-10-10T08:13:03.659Z,1016.16
2016-10-10T08:14:03.657Z,1016.17
2016-10-10T08:15:03.630Z,1016.14
2016-10-10T08:16:03.616Z,1016.17
2016-10-10T08:17:03.600Z,1016.2
2016-10-10T08:18:03.585Z,1016.15
2016-10-10T08:19:03.571Z,1016.19
2016-10-10T08:20:03.557Z,1016.19
2016-10-10T08:21:03.543Z,1016.18
2016-10-10T08:22:03.528Z,1016.17
2016-10-10T08:23:03.514Z,1016.15
2016-10-10T08:24:03.502Z,1016.17
2016-10-10T08:25:03.485Z,1016.15
2016-10-10T08:26:03.472Z,1016.16
2016-10-10T08:27:03.457Z,1016.16
2016-10-10T08:28:03.443Z,1016.2
2016-10-10T08:29:03.430Z,1016.19
2016-10-10T08:30:03.415Z,1016.21
2016-10-10T08:31:03.400Z,1016.21
2016-10-10T08:32:03.391Z,1016.18
2016-10-10T08:33:03.373Z,1016.23
2016-10-10T08:34:03.360Z,1016.23
2016-10-10T08:35:03.346Z,1016.27
2016-10-10T08:36:03.332Z,1016.29
2016-10-10T08:37:03.321Z,1016.3
2016-10-10T08:38:03.303Z,1016.29
2016-10-10T08:39:03.290Z,1016.3
2016-10-10T08:40:03.275Z,1016.29
2016-10-10T08:41:03.259Z,1016.31
2016-10-10T08:42:03.248Z,1016.3
2016-10-10T08:43:03.233Z,1016.28
2016-10-10T08:44:03.218Z,1016.31
2016-10-10T08:45:03.204Z,1016.35
2016-10-10T08:46:03.194Z,1016.29
2016-10-10T08:47:03.175Z,1016.34
2016-10-10T08:48:03.163Z,1016.32
2016-10-10T08:49:03.149Z,1016.32
2016-10-10T08:50:03.150Z,1016.31
2016-10-10T08:51:03.131Z,1016.32
2016-10-10T08:52:03.115Z,1016.32
2016-10-10T08:53:03.093Z,1016.3
2016-10-10T08:54:03.080Z,1016.27
2016-10-10T08:55:03.066Z,1016.31
2016-10-10T08:56:03.055Z,1016.32
2016-10-10T08:57:03.039Z,1016.31
2016-10-10T08:58:03.025Z,1016.31
2016-10-10T08:59:03.015Z,1016.3
2016-10-10T09:00:02.999Z,1016.33
2016-10-10T09:01:02.987Z,1016.3
2016-10-10T09:02:02.972Z,1016.31
2016-10-10T09:03:02.961Z,1016.28
2016-10-10T09:04:02.944Z,1016.31
2016-10-10T09:05:02.932Z,1016.3
2016-10-10T09:06:02.918Z,1016.28
2016-10-10T09:07:02.904Z,1016.27
2016-10-10T09:08:02.892Z,1016.32
2016-10-10T09:09:02.877Z,1016.29
2016-10-10T09:10:02.864Z,1016.28
2016-10-10T09:11:02.851Z,1016.26
2016-10-10T09:12:02.839Z,1016.3
2016-10-10T09:13:02.829Z,1016.28
2016-10-10T09:14:02.811Z,1016.25
2016-10-10T09:15:02.799Z,1016.22
2016-10-10T09:16:02.788Z,1016.21
2016-10-10T09:17:02.772Z,1016.23
2016-10-10T09:18:02.759Z,1016.22
2016-10-10T09:19:02.747Z,1016.24
2016-10-10T09:20:02.736Z,1016.26
2016-10-10T09:21:02.718Z,1016.29
2016-10-10T09:22:02.708Z,1016.32
2016-10-10T09:23:02.695Z,1016.29
2016-10-10T09:24:02.683Z,1016.31
2016-10-10T09:25:02.667Z,1016.29
2016-10-10T09:26:02.653Z,1016.31
2016-10-10T09:27:02.641Z,1016.34
2016-10-10T09:28:02.628Z,1016.34
2016-10-10T09:29:02.620Z,1016.34
2016-10-10T09:30:02.604Z,1016.37
2016-10-10T09:31:02.589Z,1016.31
2016-10-10T09:32:02.578Z,1016.31
2016-10-10T09:33:02.566Z,1016.29
2016-10-10T09:34:02.551Z,1016.29
2016-10-10T09:35:02.554Z,1016.31
2016-10-10T09:36:02.532Z,1016.3
2016-10-10T09:37:02.514Z,1016.31
2016-10-10T09:38:02.502Z,1016.29
2016-10-10T09:39:02.487Z,1016.32
2016-10-10T09:40:02.481Z,1016.3
2016-10-10T09:41:02.462Z,1016.27
2016-10-10T09:42:02.447Z,1016.29
2016-10-10T09:43:02.436Z,1016.34
2016-10-10T09:44:02.424Z,1016.31
2016-10-10T09:45:02.411Z,1016.34
2016-10-10T09:46:02.418Z,1016.33
2016-10-10T09:47:02.382Z,1016.33
2016-10-10T09:48:02.375Z,1016.33
2016-10-10T09:49:02.359Z,1016.35
2016-10-10T09:50:02.346Z,1016.34
2016-10-10T09:51:02.334Z,1016.32
2016-10-10T09:52:02.323Z,1016.32
2016-10-10T09:53:02.305Z,1016.26
2016-10-10T09:54:02.300Z,1016.25
2016-10-10T09:55:02.288Z,1016.26
2016-10-10T09:56:02.267Z,1016.22
2016-10-10T09:57:02.253Z,1016.23
2016-10-10T09:58:02.244Z,1016.2
2016-10-10T09:59:02.230Z,1016.18
2016-10-10T10:00:02.214Z,1016.18
2016-10-10T10:01:02.230Z,1016.2
2016-10-10T10:02:02.193Z,1016.2
2016-10-10T10:03:02.176Z,1016.22
2016-10-10T10:04:02.165Z,1016.23
2016-10-10T10:05:02.152Z,1016.22
2016-10-10T10:06:02.140Z,1016.22
2016-10-10T10:07:02.126Z,1016.22
2016-10-10T10:08:02.112Z,1016.19
2016-10-10T10:09:02.100Z,1016.21
2016-10-10T10:10:02.088Z,1016.24
2016-10-10T10:11:02.074Z,1016.24
2016-10-10T10:12:02.062Z,1016.27
2016-10-10T10:13:02.050Z,1016.24
2016-10-10T10:14:02.038Z,1016.22
2016-10-10T10:15:02.025Z,1016.2
2016-10-10T10:16:02.015Z,1016.21
2016-10-10T10:17:02.001Z,1016.21
2016-10-10T10:18:01.988Z,1016.2
2016-10-10T10:19:01.977Z,1016.22
2016-10-10T10:20:01.964Z,1016.24
2016-10-10T10:21:01.951Z,1016.2
2016-10-10T10:22:01.938Z,1016.23
2016-10-10T10:23:01.928Z,1016.15
2016-10-10T10:24:01.914Z,1016.17
2016-10-10T10:25:01.904Z,1016.19
2016-10-10T10:26:01.889Z,1016.17
2016-10-10T10:27:01.878Z,1016.2
2016-10-10T10:28:01.867Z,1016.21
2016-10-10T10:29:01.855Z,1016.19
2016-10-10T10:30:01.841Z,1016.17
2016-10-10T10:31:01.830Z,1016.19
2016-10-10T10:32:01.820Z,1016.17
2016-10-10T10:33:01.810Z,1016.18
2016-10-10T10:34:01.797Z,1016.19
2016-10-10T10:35:01.785Z,1016.19
2016-10-10T10:36:01.771Z,1016.17
2016-10-10T10:37:01.760Z,1016.16
2016-10-10T10:38:01.748Z,1016.13
2016-10-10T10:39:01.737Z,1016.11
2016-10-10T10:40:01.726Z,1016.1
2016-10-10T10:41:01.713Z,1016.08
2016-10-10T10:42:01.702Z,1016.09
2016-10-10T10:43:01.691Z,1016.09
2016-10-10T10:44:01.679Z,1016.04
2016-10-10T10:45:01.669Z,1016.03
2016-10-10T10:46:01.659Z,1016.05
2016-10-10T10:47:01.650Z,1016.02
2016-10-10T10:48:01.637Z,1016.02
2016-10-10T10:49:01.626Z,1016.03
2016-10-10T10:50:01.623Z,1016.01
2016-10-10T10:51:01.605Z,1015.98
2016-10-10T10:52:01.594Z,1016
2016-10-10T10:53:01.583Z,1016.01
2016-10-10T10:54:01.573Z,1015.99
2016-10-10T10:55:01.562Z,1015.98
2016-10-10T10:56:01.553Z,1015.96
2016-10-10T10:57:01.543Z,1015.95
2016-10-10T10:58:01.533Z,1015.97
2016-10-10T10:59:01.522Z,1015.94
2016-10-10T11:00:01.513Z,1015.94
2016-10-10T11:01:01.504Z,1015.94
2016-10-10T11:02:01.495Z,1015.92
2016-10-10T11:03:01.485Z,1015.85
2016-10-10T11:04:01.476Z,1015.86
2016-10-10T11:05:01.463Z,1015.87
2016-10-10T11:06:01.452Z,1015.89
2016-10-10T11:07:01.645Z,1015.86
2016-10-10T11:08:01.435Z,1015.91
2016-10-10T11:09:01.423Z,1015.86
2016-10-10T11:10:01.412Z,1015.87
2016-10-10T11:11:01.403Z,1015.81
2016-10-10T11:12:01.391Z,1015.86
2016-10-10T11:13:01.382Z,1015.85
2016-10-10T11:14:01.372Z,1015.8
2016-10-10T11:15:01.361Z,1015.81
2016-10-10T11:16:01.351Z,1015.79
2016-10-10T11:17:01.340Z,1015.75
2016-10-10T11:18:01.331Z,1015.79
2016-10-10T11:19:01.322Z,1015.78
2016-10-10T11:20:01.311Z,1015.83
2016-10-10T11:21:01.311Z,1015.81
2016-10-10T11:22:01.292Z,1015.77
2016-10-10T11:23:01.281Z,1015.81
2016-10-10T11:24:01.273Z,1015.8
2016-10-10T11:25:01.262Z,1015.74
2016-10-10T11:26:01.253Z,1015.77
2016-10-10T11:27:01.246Z,1015.72
2016-10-10T11:28:01.233Z,1015.77
2016-10-10T11:29:01.225Z,1015.73
2016-10-10T11:30:01.215Z,1015.76
2016-10-10T11:31:01.204Z,1015.73
2016-10-10T11:32:01.196Z,1015.72
2016-10-10T11:33:01.185Z,1015.76
2016-10-10T11:34:01.178Z,1015.79
2016-10-10T11:35:01.165Z,1015.77
2016-10-10T11:36:01.158Z,1015.77
2016-10-10T11:37:01.148Z,1015.72
2016-10-10T11:38:01.146Z,1015.69
2016-10-10T11:39:01.129Z,1015.72
2016-10-10T11:40:01.120Z,1015.68
2016-10-10T11:41:01.111Z,1015.74
2016-10-10T11:42:01.102Z,1015.7
2016-10-10T11:43:01.092Z,1015.69
2016-10-10T11:44:01.084Z,1015.64
2016-10-10T11:45:01.074Z,1015.64
2016-10-10T11:46:01.064Z,1015.63
2016-10-10T11:47:01.055Z,1015.64
2016-10-10T11:48:01.046Z,1015.64
2016-10-10T11:49:01.037Z,1015.64
2016-10-10T11:50:01.027Z,1015.6
2016-10-10T11:51:01.019Z,1015.59
2016-10-10T11:52:01.011Z,1015.61
2016-10-10T11:53:01.006Z,1015.58
2016-10-10T11:54:00.992Z,1015.57
2016-10-10T11:55:00.983Z,1015.56
2016-10-10T11:56:00.977Z,1015.54
2016-10-10T11:57:00.965Z,1015.57
2016-10-10T11:58:00.956Z,1015.59
2016-10-10T11:59:00.951Z,1015.54
2016-10-10T12:00:00.940Z,1015.57
2016-10-10T12:01:00.933Z,1015.57
2016-10-10T12:02:00.927Z,1015.55
2016-10-10T12:03:00.917Z,1015.58
2016-10-10T12:04:00.910Z,1015.59
2016-10-10T12:05:00.903Z,1015.53
2016-10-10T12:06:00.898Z,1015.56
2016-10-10T12:07:00.891Z,1015.55
2016-10-10T12:08:00.885Z,1015.52